sensor_id;sensor_type;location;lat;lon;timestamp;pressure;altitude;pressure_sealevel;temperature;humidity
84967;BME280;75275;51.348;12.358;2024-02-26T00:02:24;99165.38;;;4.47;69.90
84967;BME280;75275;51.348;12.358;2024-02-26T00:04:51;99160.44;;;4.39;70.52
84967;BME280;75275;51.348;12.358;2024-02-26T00:07:18;99167.16;;;4.31;70.35
84967;BME280;75275;51.348;12.358;2024-02-26T00:09:46;99166.06;;;4.27;70.33
84967;BME280;75275;51.348;12.358;2024-02-26T00:12:13;99167.94;;;4.21;70.53
84967;BME280;75275;51.348;12.358;2024-02-26T00:14:40;99160.34;;;4.23;70.86
84967;BME280;75275;51.348;12.358;2024-02-26T00:17:07;99155.47;;;4.25;70.53
84967;BME280;75275;51.348;12.358;2024-02-26T00:19:36;99151.13;;;4.24;70.41
84967;BME280;75275;51.348;12.358;2024-02-26T00:22:03;99146.47;;;4.20;70.52
84967;BME280;75275;51.348;12.358;2024-02-26T00:24:30;99141.28;;;4.13;70.68
84967;BME280;75275;51.348;12.358;2024-02-26T00:26:59;99147.78;;;4.12;70.86
84967;BME280;75275;51.348;12.358;2024-02-26T00:29:26;99145.59;;;4.09;71.27
84967;BME280;75275;51.348;12.358;2024-02-26T00:31:53;99148.59;;;4.13;71.33
84967;BME280;75275;51.348;12.358;2024-02-26T00:34:20;99139.13;;;4.15;71.33
84967;BME280;75275;51.348;12.358;2024-02-26T00:36:49;99139.69;;;4.17;71.16
84967;BME280;75275;51.348;12.358;2024-02-26T00:39:16;99139.66;;;4.12;71.45
84967;BME280;75275;51.348;12.358;2024-02-26T00:41:42;99127.72;;;4.13;71.44
84967;BME280;75275;51.348;12.358;2024-02-26T00:44:09;99132.63;;;4.16;71.23
84967;BME280;75275;51.348;12.358;2024-02-26T00:46:37;99129.97;;;4.21;71.28
84967;BME280;75275;51.348;12.358;2024-02-26T00:49:04;99127.78;;;4.23;70.96
84967;BME280;75275;51.348;12.358;2024-02-26T00:51:31;99125.34;;;4.22;71.20
84967;BME280;75275;51.348;12.358;2024-02-26T00:53:59;99116.34;;;4.16;71.43
84967;BME280;75275;51.348;12.358;2024-02-26T00:56:26;99112.53;;;4.12;71.94
84967;BME280;75275;51.348;12.358;2024-02-26T00:58:53;99121.78;;;4.16;72.85
84967;BME280;75275;51.348;12.358;2024-02-26T01:01:24;99120.19;;;4.20;71.94
84967;BME280;75275;51.348;12.358;2024-02-26T01:03:53;99117.75;;;4.24;72.00
84967;BME280;75275;51.348;12.358;2024-02-26T01:06:20;99111.53;;;4.23;71.89
84967;BME280;75275;51.348;12.358;2024-02-26T01:08:47;99113.16;;;4.24;72.10
84967;BME280;75275;51.348;12.358;2024-02-26T01:11:16;99112.09;;;4.30;71.91
84967;BME280;75275;51.348;12.358;2024-02-26T01:13:43;99119.97;;;4.32;72.33
84967;BME280;75275;51.348;12.358;2024-02-26T01:16:10;99111.59;;;4.33;71.88
84967;BME280;75275;51.348;12.358;2024-02-26T01:18:37;99111.06;;;4.37;72.29
84967;BME280;75275;51.348;12.358;2024-02-26T01:21:04;99103.97;;;4.35;71.78
84967;BME280;75275;51.348;12.358;2024-02-26T01:23:37;99107.81;;;4.40;72.38
84967;BME280;75275;51.348;12.358;2024-02-26T01:26:07;99108.59;;;4.35;71.80
84967;BME280;75275;51.348;12.358;2024-02-26T01:28:35;99101.81;;;4.32;71.72
84967;BME280;75275;51.348;12.358;2024-02-26T01:31:02;99105.59;;;4.31;71.53
84967;BME280;75275;51.348;12.358;2024-02-26T01:33:31;99101.81;;;4.32;72.28
84967;BME280;75275;51.348;12.358;2024-02-26T01:35:58;99090.13;;;4.32;72.12
84967;BME280;75275;51.348;12.358;2024-02-26T01:38:26;99088.25;;;4.32;72.25
84967;BME280;75275;51.348;12.358;2024-02-26T01:40:55;99091.50;;;4.29;72.54
84967;BME280;75275;51.348;12.358;2024-02-26T01:43:22;99082.00;;;4.32;72.15
84967;BME280;75275;51.348;12.358;2024-02-26T01:45:51;99086.59;;;4.31;72.96
84967;BME280;75275;51.348;12.358;2024-02-26T01:48:18;99077.66;;;4.26;72.45
84967;BME280;75275;51.348;12.358;2024-02-26T01:50:48;99074.59;;;4.17;73.24
84967;BME280;75275;51.348;12.358;2024-02-26T01:53:16;99076.19;;;4.13;72.86
84967;BME280;75275;51.348;12.358;2024-02-26T01:55:44;99068.06;;;4.13;72.75
84967;BME280;75275;51.348;12.358;2024-02-26T01:58:11;99069.72;;;4.14;72.60
84967;BME280;75275;51.348;12.358;2024-02-26T02:00:39;99065.63;;;4.12;72.88
84967;BME280;75275;51.348;12.358;2024-02-26T02:03:08;99068.06;;;4.08;73.35
84967;BME280;75275;51.348;12.358;2024-02-26T02:05:36;99064.78;;;4.06;73.60
84967;BME280;75275;51.348;12.358;2024-02-26T02:08:07;99058.81;;;4.04;73.60
84967;BME280;75275;51.348;12.358;2024-02-26T02:10:35;99059.91;;;4.08;73.65
84967;BME280;75275;51.348;12.358;2024-02-26T02:13:02;99064.53;;;4.13;73.51
84967;BME280;75275;51.348;12.358;2024-02-26T02:15:29;99059.41;;;4.16;73.49
84967;BME280;75275;51.348;12.358;2024-02-26T02:17:56;99051.56;;;4.20;73.63
84967;BME280;75275;51.348;12.358;2024-02-26T02:20:26;99053.47;;;4.19;73.44
84967;BME280;75275;51.348;12.358;2024-02-26T02:22:53;99057.28;;;4.23;73.42
84967;BME280;75275;51.348;12.358;2024-02-26T02:25:21;99062.47;;;4.25;73.08
84967;BME280;75275;51.348;12.358;2024-02-26T02:27:47;99059.75;;;4.25;72.66
84967;BME280;75275;51.348;12.358;2024-02-26T02:30:15;99070.03;;;4.23;73.05
84967;BME280;75275;51.348;12.358;2024-02-26T02:32:41;99068.41;;;4.22;72.75
84967;BME280;75275;51.348;12.358;2024-02-26T02:35:14;99064.31;;;4.19;72.99
84967;BME280;75275;51.348;12.358;2024-02-26T02:37:43;99059.69;;;4.15;73.06
84967;BME280;75275;51.348;12.358;2024-02-26T02:40:10;99071.88;;;4.12;73.37
84967;BME280;75275;51.348;12.358;2024-02-26T02:42:37;99061.53;;;4.09;73.27
84967;BME280;75275;51.348;12.358;2024-02-26T02:45:05;99069.69;;;4.09;73.00
84967;BME280;75275;51.348;12.358;2024-02-26T02:47:35;99075.16;;;4.14;73.05
84967;BME280;75275;51.348;12.358;2024-02-26T02:50:03;99073.78;;;4.17;73.00
84967;BME280;75275;51.348;12.358;2024-02-26T02:52:29;99080.28;;;4.16;72.97
84967;BME280;75275;51.348;12.358;2024-02-26T02:54:58;99080.28;;;4.16;73.03
84967;BME280;75275;51.348;12.358;2024-02-26T02:57:27;99078.97;;;4.18;72.75
84967;BME280;75275;51.348;12.358;2024-02-26T02:59:54;99086.81;;;4.20;73.07
84967;BME280;75275;51.348;12.358;2024-02-26T03:02:21;99095.25;;;4.23;72.87
84967;BME280;75275;51.348;12.358;2024-02-26T03:04:49;99099.28;;;4.21;72.58
84967;BME280;75275;51.348;12.358;2024-02-26T03:07:15;99105.56;;;4.21;72.80
84967;BME280;75275;51.348;12.358;2024-02-26T03:09:42;99098.78;;;4.24;72.95
84967;BME280;75275;51.348;12.358;2024-02-26T03:12:11;99105.56;;;4.26;72.74
84967;BME280;75275;51.348;12.358;2024-02-26T03:14:41;99105.28;;;4.23;72.43
84967;BME280;75275;51.348;12.358;2024-02-26T03:17:08;99101.72;;;4.17;73.00
84967;BME280;75275;51.348;12.358;2024-02-26T03:19:38;99102.78;;;4.11;72.89
84967;BME280;75275;51.348;12.358;2024-02-26T03:22:08;99099.22;;;4.05;72.77
84967;BME280;75275;51.348;12.358;2024-02-26T03:24:35;99100.03;;;4.06;72.93
84967;BME280;75275;51.348;12.358;2024-02-26T03:27:02;99100.59;;;4.08;72.66
84967;BME280;75275;51.348;12.358;2024-02-26T03:29:31;99107.91;;;4.07;72.65
84967;BME280;75275;51.348;12.358;2024-02-26T03:31:58;99105.97;;;4.03;72.81
84967;BME280;75275;51.348;12.358;2024-02-26T03:36:52;99111.09;;;3.99;73.34
84967;BME280;75275;51.348;12.358;2024-02-26T03:39:19;99112.38;;;3.92;73.41
84967;BME280;75275;51.348;12.358;2024-02-26T03:41:46;99115.03;;;3.81;73.58
84967;BME280;75275;51.348;12.358;2024-02-26T03:44:13;99116.63;;;3.77;74.02
84967;BME280;75275;51.348;12.358;2024-02-26T03:46:41;99116.06;;;3.75;74.71
84967;BME280;75275;51.348;12.358;2024-02-26T03:49:09;99118.19;;;3.68;74.48
84967;BME280;75275;51.348;12.358;2024-02-26T03:51:37;99114.31;;;3.59;75.11
84967;BME280;75275;51.348;12.358;2024-02-26T03:54:04;99115.38;;;3.58;75.61
84967;BME280;75275;51.348;12.358;2024-02-26T03:56:31;99110.47;;;3.55;75.95
84967;BME280;75275;51.348;12.358;2024-02-26T03:58:58;99118.00;;;3.48;76.81
84967;BME280;75275;51.348;12.358;2024-02-26T04:01:27;99113.16;;;3.50;76.73
84967;BME280;75275;51.348;12.358;2024-02-26T04:03:57;99116.97;;;3.54;76.52
84967;BME280;75275;51.348;12.358;2024-02-26T04:06:23;99117.56;;;3.56;76.23
84967;BME280;75275;51.348;12.358;2024-02-26T04:08:50;99117.25;;;3.52;76.83
84967;BME280;75275;51.348;12.358;2024-02-26T04:11:17;99118.66;;;3.60;76.70
84967;BME280;75275;51.348;12.358;2024-02-26T04:13:44;99115.38;;;3.58;76.24
84967;BME280;75275;51.348;12.358;2024-02-26T04:16:14;99122.69;;;3.57;76.98
84967;BME280;75275;51.348;12.358;2024-02-26T04:18:42;99120.25;;;3.56;77.11
84967;BME280;75275;51.348;12.358;2024-02-26T04:21:10;99121.81;;;3.52;77.03
84967;BME280;75275;51.348;12.358;2024-02-26T04:23:41;99122.91;;;3.51;77.34
84967;BME280;75275;51.348;12.358;2024-02-26T04:26:09;99118.81;;;3.48;78.24
84967;BME280;75275;51.348;12.358;2024-02-26T04:28:35;99116.69;;;3.50;77.94
84967;BME280;75275;51.348;12.358;2024-02-26T04:31:03;99116.09;;;3.48;77.52
84967;BME280;75275;51.348;12.358;2024-02-26T04:33:29;99108.25;;;3.47;77.66
84967;BME280;75275;51.348;12.358;2024-02-26T04:35:56;99106.63;;;3.46;77.19
84967;BME280;75275;51.348;12.358;2024-02-26T04:38:24;99103.84;;;3.41;77.01
84967;BME280;75275;51.348;12.358;2024-02-26T04:40:51;99118.47;;;3.40;77.63
84967;BME280;75275;51.348;12.358;2024-02-26T04:43:19;99109.22;;;3.35;78.19
84967;BME280;75275;51.348;12.358;2024-02-26T04:45:46;99112.53;;;3.43;77.92
84967;BME280;75275;51.348;12.358;2024-02-26T04:48:13;99114.97;;;3.44;78.32
84967;BME280;75275;51.348;12.358;2024-02-26T04:50:40;99104.97;;;3.45;78.07
84967;BME280;75275;51.348;12.358;2024-02-26T04:53:07;99112.34;;;3.49;77.67
84967;BME280;75275;51.348;12.358;2024-02-26T04:55:36;99114.28;;;3.54;77.08
84967;BME280;75275;51.348;12.358;2024-02-26T04:58:03;99113.69;;;3.52;76.99
84967;BME280;75275;51.348;12.358;2024-02-26T05:00:31;99120.72;;;3.48;77.25
84967;BME280;75275;51.348;12.358;2024-02-26T05:02:58;99117.97;;;3.43;78.47
84967;BME280;75275;51.348;12.358;2024-02-26T05:05:25;99119.25;;;3.35;78.49
84967;BME280;75275;51.348;12.358;2024-02-26T05:07:51;99125.72;;;3.34;77.96
84967;BME280;75275;51.348;12.358;2024-02-26T05:10:19;99124.34;;;3.31;78.26
84967;BME280;75275;51.348;12.358;2024-02-26T05:12:47;99127.31;;;3.30;78.95
84967;BME280;75275;51.348;12.358;2024-02-26T05:15:17;99138.13;;;3.30;78.68
84967;BME280;75275;51.348;12.358;2024-02-26T05:17:44;99136.50;;;3.29;78.79
84967;BME280;75275;51.348;12.358;2024-02-26T05:20:12;99142.19;;;3.27;79.57
84967;BME280;75275;51.348;12.358;2024-02-26T05:22:41;99133.28;;;3.32;78.96
84967;BME280;75275;51.348;12.358;2024-02-26T05:25:08;99137.13;;;3.36;78.27
84967;BME280;75275;51.348;12.358;2024-02-26T05:27:35;99136.84;;;3.37;78.18
84967;BME280;75275;51.348;12.358;2024-02-26T05:30:04;99135.22;;;3.36;78.39
84967;BME280;75275;51.348;12.358;2024-02-26T05:32:31;99135.53;;;3.40;78.05
84967;BME280;75275;51.348;12.358;2024-02-26T05:35:00;99138.19;;;3.35;78.59
84967;BME280;75275;51.348;12.358;2024-02-26T05:37:28;99135.72;;;3.33;78.91
84967;BME280;75275;51.348;12.358;2024-02-26T05:39:55;99133.59;;;3.35;78.31
84967;BME280;75275;51.348;12.358;2024-02-26T05:42:22;99131.97;;;3.34;79.28
84967;BME280;75275;51.348;12.358;2024-02-26T05:44:49;99143.13;;;3.38;79.41
84967;BME280;75275;51.348;12.358;2024-02-26T05:47:17;99133.03;;;3.33;78.73
84967;BME280;75275;51.348;12.358;2024-02-26T05:49:44;99125.72;;;3.34;78.91
84967;BME280;75275;51.348;12.358;2024-02-26T05:52:11;99130.91;;;3.35;78.76
84967;BME280;75275;51.348;12.358;2024-02-26T05:54:38;99130.31;;;3.33;78.36
84967;BME280;75275;51.348;12.358;2024-02-26T05:57:06;99123.28;;;3.32;79.16
84967;BME280;75275;51.348;12.358;2024-02-26T05:59:33;99131.69;;;3.36;78.81
84967;BME280;75275;51.348;12.358;2024-02-26T06:02:00;99136.34;;;3.41;78.95
84967;BME280;75275;51.348;12.358;2024-02-26T06:04:29;99131.19;;;3.39;78.60
84967;BME280;75275;51.348;12.358;2024-02-26T06:06:55;99137.16;;;3.41;78.98
84967;BME280;75275;51.348;12.358;2024-02-26T06:09:22;99125.59;;;3.46;78.37
84967;BME280;75275;51.348;12.358;2024-02-26T06:11:49;99130.72;;;3.47;78.52
84967;BME280;75275;51.348;12.358;2024-02-26T06:14:16;99129.41;;;3.50;78.90
84967;BME280;75275;51.348;12.358;2024-02-26T06:16:44;99134.31;;;3.53;78.77
84967;BME280;75275;51.348;12.358;2024-02-26T06:19:10;99129.50;;;3.60;78.43
84967;BME280;75275;51.348;12.358;2024-02-26T06:21:39;99133.88;;;3.66;78.08
84967;BME280;75275;51.348;12.358;2024-02-26T06:24:06;99132.03;;;3.72;77.79
84967;BME280;75275;51.348;12.358;2024-02-26T06:26:33;99136.66;;;3.76;77.81
84967;BME280;75275;51.348;12.358;2024-02-26T06:29:00;99134.56;;;3.83;77.40
84967;BME280;75275;51.348;12.358;2024-02-26T06:31:27;99138.94;;;3.90;76.85
84967;BME280;75275;51.348;12.358;2024-02-26T06:33:54;99143.59;;;3.94;76.80
84967;BME280;75275;51.348;12.358;2024-02-26T06:36:22;99150.94;;;3.99;76.31
84967;BME280;75275;51.348;12.358;2024-02-26T06:38:55;99154.50;;;4.04;76.17
84967;BME280;75275;51.348;12.358;2024-02-26T06:41:25;99158.13;;;4.15;75.68
84967;BME280;75275;51.348;12.358;2024-02-26T06:43:55;99161.94;;;4.19;75.57
84967;BME280;75275;51.348;12.358;2024-02-26T06:46:22;99159.53;;;4.23;75.26
84967;BME280;75275;51.348;12.358;2024-02-26T06:48:49;99156.59;;;4.29;74.79
84967;BME280;75275;51.348;12.358;2024-02-26T06:51:15;99164.97;;;4.28;74.93
84967;BME280;75275;51.348;12.358;2024-02-26T06:53:43;99164.50;;;4.36;74.72
84967;BME280;75275;51.348;12.358;2024-02-26T06:56:11;99160.47;;;4.44;74.60
84967;BME280;75275;51.348;12.358;2024-02-26T06:58:38;99167.31;;;4.51;74.30
84967;BME280;75275;51.348;12.358;2024-02-26T07:01:05;99165.41;;;4.57;74.26
84967;BME280;75275;51.348;12.358;2024-02-26T07:03:33;99175.50;;;4.67;73.41
84967;BME280;75275;51.348;12.358;2024-02-26T07:06:00;99175.59;;;4.82;73.83
84967;BME280;75275;51.348;12.358;2024-02-26T07:08:27;99173.78;;;4.98;72.89
84967;BME280;75275;51.348;12.358;2024-02-26T07:10:54;99174.34;;;5.10;72.89
84967;BME280;75275;51.348;12.358;2024-02-26T07:13:22;99176.53;;;5.18;72.26
84967;BME280;75275;51.348;12.358;2024-02-26T07:15:49;99174.44;;;5.30;71.77
84967;BME280;75275;51.348;12.358;2024-02-26T07:18:18;99177.16;;;5.36;71.82
84967;BME280;75275;51.348;12.358;2024-02-26T07:20:45;99178.78;;;5.42;71.67
84967;BME280;75275;51.348;12.358;2024-02-26T07:23:12;99174.72;;;5.54;71.21
84967;BME280;75275;51.348;12.358;2024-02-26T07:25:39;99171.78;;;5.76;70.48
84967;BME280;75275;51.348;12.358;2024-02-26T07:28:07;99177.81;;;5.94;69.85
84967;BME280;75275;51.348;12.358;2024-02-26T07:30:36;99181.06;;;6.16;69.19
84967;BME280;75275;51.348;12.358;2024-02-26T07:33:04;99182.13;;;6.41;68.70
84967;BME280;75275;51.348;12.358;2024-02-26T07:35:31;99175.00;;;6.60;68.21
84967;BME280;75275;51.348;12.358;2024-02-26T07:37:58;99173.88;;;6.71;68.44
84967;BME280;75275;51.348;12.358;2024-02-26T07:40:25;99177.13;;;6.84;67.40
84967;BME280;75275;51.348;12.358;2024-02-26T07:42:52;99173.31;;;6.85;67.06
84967;BME280;75275;51.348;12.358;2024-02-26T07:45:19;99174.94;;;6.81;67.11
84967;BME280;75275;51.348;12.358;2024-02-26T07:47:47;99177.69;;;6.81;66.61
84967;BME280;75275;51.348;12.358;2024-02-26T07:50:16;99180.44;;;6.75;67.57
84967;BME280;75275;51.348;12.358;2024-02-26T07:52:45;99179.06;;;6.73;67.85
84967;BME280;75275;51.348;12.358;2024-02-26T07:55:12;99179.91;;;6.68;68.64
84967;BME280;75275;51.348;12.358;2024-02-26T07:57:42;99189.69;;;6.69;67.72
84967;BME280;75275;51.348;12.358;2024-02-26T08:00:10;99183.16;;;6.70;67.46
84967;BME280;75275;51.348;12.358;2024-02-26T08:02:42;99192.09;;;6.81;67.87
84967;BME280;75275;51.348;12.358;2024-02-26T08:05:10;99190.16;;;6.92;67.62
84967;BME280;75275;51.348;12.358;2024-02-26T08:10:28;99196.09;;;7.04;66.31
84967;BME280;75275;51.348;12.358;2024-02-26T08:12:55;99205.94;;;7.05;67.05
84967;BME280;75275;51.348;12.358;2024-02-26T08:15:30;99198.84;;;6.99;66.89
84967;BME280;75275;51.348;12.358;2024-02-26T08:17:56;99203.19;;;7.05;67.18
84967;BME280;75275;51.348;12.358;2024-02-26T08:20:25;99191.69;;;7.23;66.75
84967;BME280;75275;51.348;12.358;2024-02-26T08:22:52;99192.06;;;7.51;65.69
84967;BME280;75275;51.348;12.358;2024-02-26T08:25:19;99186.19;;;7.73;64.88
84967;BME280;75275;51.348;12.358;2024-02-26T08:27:45;99196.16;;;7.93;64.17
84967;BME280;75275;51.348;12.358;2024-02-26T08:30:13;99193.38;;;8.03;63.29
84967;BME280;75275;51.348;12.358;2024-02-26T08:32:42;99196.03;;;8.08;62.65
84967;BME280;75275;51.348;12.358;2024-02-26T08:35:13;99195.09;;;8.23;62.51
84967;BME280;75275;51.348;12.358;2024-02-26T08:37:44;99200.13;;;8.45;62.69
84967;BME280;75275;51.348;12.358;2024-02-26T08:40:14;99208.19;;;8.84;61.43
84967;BME280;75275;51.348;12.358;2024-02-26T08:42:41;99205.31;;;9.19;60.45
84967;BME280;75275;51.348;12.358;2024-02-26T08:45:09;99202.41;;;9.34;59.22
84967;BME280;75275;51.348;12.358;2024-02-26T08:47:36;99210.09;;;9.32;59.11
84967;BME280;75275;51.348;12.358;2024-02-26T08:50:03;99200.50;;;9.10;59.36
84967;BME280;75275;51.348;12.358;2024-02-26T08:52:30;99204.69;;;9.27;59.56
84967;BME280;75275;51.348;12.358;2024-02-26T08:55:00;99205.16;;;9.34;59.54
84967;BME280;75275;51.348;12.358;2024-02-26T08:57:28;99208.81;;;9.24;59.18
84967;BME280;75275;51.348;12.358;2024-02-26T08:59:57;99214.91;;;9.40;58.53
84967;BME280;75275;51.348;12.358;2024-02-26T09:02:25;99201.63;;;9.71;58.07
84967;BME280;75275;51.348;12.358;2024-02-26T09:04:59;99209.47;;;9.78;57.97
84967;BME280;75275;51.348;12.358;2024-02-26T09:07:26;99216.50;;;10.03;56.97
84967;BME280;75275;51.348;12.358;2024-02-26T09:09:53;99204.69;;;10.21;56.41
84967;BME280;75275;51.348;12.358;2024-02-26T09:12:23;99198.25;;;10.31;56.21
84967;BME280;75275;51.348;12.358;2024-02-26T09:14:50;99206.41;;;10.36;56.23
84967;BME280;75275;51.348;12.358;2024-02-26T09:17:18;99194.84;;;10.39;56.31
84967;BME280;75275;51.348;12.358;2024-02-26T09:19:45;99201.78;;;10.50;55.68
84967;BME280;75275;51.348;12.358;2024-02-26T09:22:12;99188.16;;;10.45;56.01
84967;BME280;75275;51.348;12.358;2024-02-26T09:24:41;99190.69;;;10.42;56.13
84967;BME280;75275;51.348;12.358;2024-02-26T09:27:08;99195.81;;;10.76;55.35
84967;BME280;75275;51.348;12.358;2024-02-26T09:29:36;99189.84;;;11.01;54.20
84967;BME280;75275;51.348;12.358;2024-02-26T09:32:04;99188.91;;;11.33;53.66
84967;BME280;75275;51.348;12.358;2024-02-26T09:34:31;99182.09;;;13.19;49.02
84967;BME280;75275;51.348;12.358;2024-02-26T09:36:59;99181.44;;;15.26;44.08
84967;BME280;75275;51.348;12.358;2024-02-26T09:39:26;99173.69;;;17.51;37.98
84967;BME280;75275;51.348;12.358;2024-02-26T09:41:53;99167.34;;;19.23;34.81
84967;BME280;75275;51.348;12.358;2024-02-26T09:44:20;99166.28;;;19.12;33.77
84967;BME280;75275;51.348;12.358;2024-02-26T09:46:49;99169.88;;;18.81;34.40
84967;BME280;75275;51.348;12.358;2024-02-26T09:49:18;99167.34;;;18.60;34.64
84967;BME280;75275;51.348;12.358;2024-02-26T09:51:47;99175.69;;;18.75;34.19
84967;BME280;75275;51.348;12.358;2024-02-26T09:54:16;99175.31;;;19.40;33.50
84967;BME280;75275;51.348;12.358;2024-02-26T09:56:46;99170.06;;;19.70;31.80
84967;BME280;75275;51.348;12.358;2024-02-26T09:59:17;99176.63;;;17.95;34.54
84967;BME280;75275;51.348;12.358;2024-02-26T10:01:44;99185.81;;;17.59;35.46
84967;BME280;75275;51.348;12.358;2024-02-26T10:04:17;99179.38;;;17.30;35.41
84967;BME280;75275;51.348;12.358;2024-02-26T10:06:48;99180.84;;;17.65;35.54
84967;BME280;75275;51.348;12.358;2024-02-26T10:09:15;99178.16;;;18.21;35.18
84967;BME280;75275;51.348;12.358;2024-02-26T10:11:43;99178.63;;;17.83;35.28
84967;BME280;75275;51.348;12.358;2024-02-26T10:14:14;99185.56;;;17.03;37.39
84967;BME280;75275;51.348;12.358;2024-02-26T10:16:42;99177.31;;;16.70;38.55
84967;BME280;75275;51.348;12.358;2024-02-26T10:19:33;99189.94;;;16.46;38.45
84967;BME280;75275;51.348;12.358;2024-02-26T10:22:02;99201.38;;;15.31;40.85
84967;BME280;75275;51.348;12.358;2024-02-26T10:24:33;99199.94;;;14.87;42.35
84967;BME280;75275;51.348;12.358;2024-02-26T10:27:00;99196.16;;;15.00;41.91
84967;BME280;75275;51.348;12.358;2024-02-26T10:29:28;99201.09;;;14.86;43.05
84967;BME280;75275;51.348;12.358;2024-02-26T10:31:55;99200.03;;;14.26;43.07
84967;BME280;75275;51.348;12.358;2024-02-26T10:34:22;99200.88;;;13.92;44.20
84967;BME280;75275;51.348;12.358;2024-02-26T10:36:55;99193.25;;;13.80;44.48
84967;BME280;75275;51.348;12.358;2024-02-26T10:39:25;99200.88;;;13.92;44.90
84967;BME280;75275;51.348;12.358;2024-02-26T10:41:52;99200.72;;;14.06;44.88
84967;BME280;75275;51.348;12.358;2024-02-26T10:44:19;99198.44;;;14.08;44.76
84967;BME280;75275;51.348;12.358;2024-02-26T10:46:47;99203.94;;;14.08;44.40
84967;BME280;75275;51.348;12.358;2024-02-26T10:49:15;99201.69;;;14.18;44.74
84967;BME280;75275;51.348;12.358;2024-02-26T10:51:45;99204.91;;;14.12;43.90
84967;BME280;75275;51.348;12.358;2024-02-26T10:54:16;99209.78;;;14.06;44.32
84967;BME280;75275;51.348;12.358;2024-02-26T10:56:46;99212.72;;;13.92;45.29
84967;BME280;75275;51.348;12.358;2024-02-26T10:59:16;99211.41;;;13.99;45.72
84967;BME280;75275;51.348;12.358;2024-02-26T11:01:47;99209.78;;;13.97;44.47
84967;BME280;75275;51.348;12.358;2024-02-26T11:04:15;99214.97;;;13.90;44.54
84967;BME280;75275;51.348;12.358;2024-02-26T11:06:43;99217.75;;;13.99;44.60
84967;BME280;75275;51.348;12.358;2024-02-26T11:09:36;99208.50;;;14.21;44.53
84967;BME280;75275;51.348;12.358;2024-02-26T11:12:08;99212.66;;;14.44;44.26
84967;BME280;75275;51.348;12.358;2024-02-26T11:14:38;99216.38;;;14.49;44.85
84967;BME280;75275;51.348;12.358;2024-02-26T11:17:08;99209.78;;;14.50;44.86
84967;BME280;75275;51.348;12.358;2024-02-26T11:19:38;99208.31;;;14.52;44.70
84967;BME280;75275;51.348;12.358;2024-02-26T11:22:05;99211.06;;;14.61;44.24
84967;BME280;75275;51.348;12.358;2024-02-26T11:24:33;99209.44;;;14.42;44.58
84967;BME280;75275;51.348;12.358;2024-02-26T11:27:06;99204.56;;;14.48;44.67
84967;BME280;75275;51.348;12.358;2024-02-26T11:29:37;99200.22;;;14.38;44.37
84967;BME280;75275;51.348;12.358;2024-02-26T11:32:06;99197.28;;;14.52;43.72
84967;BME280;75275;51.348;12.358;2024-02-26T11:34:33;99195.66;;;14.51;44.17
84967;BME280;75275;51.348;12.358;2024-02-26T11:37:09;99189.50;;;14.37;44.09
84967;BME280;75275;51.348;12.358;2024-02-26T11:39:39;99186.88;;;14.40;44.59
84967;BME280;75275;51.348;12.358;2024-02-26T11:42:07;99192.72;;;14.48;44.68
84967;BME280;75275;51.348;12.358;2024-02-26T11:44:35;99187.06;;;14.53;44.45
84967;BME280;75275;51.348;12.358;2024-02-26T11:47:10;99193.41;;;14.53;44.56
84967;BME280;75275;51.348;12.358;2024-02-26T11:49:37;99196.63;;;14.29;44.47
84967;BME280;75275;51.348;12.358;2024-02-26T11:52:08;99195.50;;;14.21;45.37
84967;BME280;75275;51.348;12.358;2024-02-26T11:54:48;99194.22;;;14.19;45.06
84967;BME280;75275;51.348;12.358;2024-02-26T11:57:26;99182.38;;;14.36;45.43
84967;BME280;75275;51.348;12.358;2024-02-26T11:59:54;99189.66;;;14.40;45.97
84967;BME280;75275;51.348;12.358;2024-02-26T12:02:41;99193.38;;;14.36;45.78
84967;BME280;75275;51.348;12.358;2024-02-26T12:05:11;99190.97;;;14.34;46.44
84967;BME280;75275;51.348;12.358;2024-02-26T12:07:40;99197.28;;;13.83;46.70
84967;BME280;75275;51.348;12.358;2024-02-26T12:10:22;99194.84;;;13.55;48.03
84967;BME280;75275;51.348;12.358;2024-02-26T12:12:53;99196.50;;;13.82;47.41
84967;BME280;75275;51.348;12.358;2024-02-26T12:15:22;99193.56;;;14.22;46.13
84967;BME280;75275;51.348;12.358;2024-02-26T12:17:52;99198.41;;;14.42;45.76
84967;BME280;75275;51.348;12.358;2024-02-26T12:20:20;99199.72;;;14.36;46.64
84967;BME280;75275;51.348;12.358;2024-02-26T12:22:52;99203.94;;;14.25;46.91
84967;BME280;75275;51.348;12.358;2024-02-26T12:25:25;99200.38;;;14.25;46.73
84967;BME280;75275;51.348;12.358;2024-02-26T12:27:55;99200.22;;;14.12;46.19
84967;BME280;75275;51.348;12.358;2024-02-26T12:30:23;99195.84;;;14.11;46.78
84967;BME280;75275;51.348;12.358;2024-02-26T12:32:51;99197.31;;;14.00;47.00
84967;BME280;75275;51.348;12.358;2024-02-26T12:35:22;99204.91;;;14.12;47.50
84967;BME280;75275;51.348;12.358;2024-02-26T12:37:50;99205.25;;;13.93;47.22
84967;BME280;75275;51.348;12.358;2024-02-26T12:40:17;99213.66;;;13.79;47.33
84967;BME280;75275;51.348;12.358;2024-02-26T12:42:46;99208.78;;;13.67;48.34
84967;BME280;75275;51.348;12.358;2024-02-26T12:45:14;99214.97;;;13.73;47.41
84967;BME280;75275;51.348;12.358;2024-02-26T12:47:43;99218.03;;;13.63;47.83
84967;BME280;75275;51.348;12.358;2024-02-26T12:50:11;99233.09;;;13.74;47.70
84967;BME280;75275;51.348;12.358;2024-02-26T12:52:40;99225.81;;;13.69;48.18
84967;BME280;75275;51.348;12.358;2024-02-26T12:55:07;99229.69;;;13.60;47.92
84967;BME280;75275;51.348;12.358;2024-02-26T12:57:37;99222.41;;;13.81;47.60
84967;BME280;75275;51.348;12.358;2024-02-26T13:00:17;99230.38;;;14.00;47.24
84967;BME280;75275;51.348;12.358;2024-02-26T13:02:45;99233.13;;;14.00;46.95
84967;BME280;75275;51.348;12.358;2024-02-26T13:05:14;99234.59;;;13.80;47.76
84967;BME280;75275;51.348;12.358;2024-02-26T13:07:41;99237.16;;;13.77;47.58
84967;BME280;75275;51.348;12.358;2024-02-26T13:10:09;99249.00;;;13.77;48.14